createdAt,value
2023-04-13T00:00:38.020Z,5.35
2023-04-13T00:03:05.513Z,5.31
2023-04-13T00:05:34.512Z,5.28
2023-04-13T00:08:02.938Z,5.25
2023-04-13T00:10:31.405Z,5.22
2023-04-13T00:13:01.580Z,5.18
2023-04-13T00:15:28.376Z,5.16
2023-04-13T00:17:55.035Z,5.15
2023-04-13T00:20:21.743Z,5.12
2023-04-13T00:22:48.978Z,5.09
2023-04-13T00:25:16.804Z,5.09
2023-04-13T00:27:44.865Z,5.10
2023-04-13T00:30:13.772Z,5.07
2023-04-13T00:32:43.000Z,5.03
2023-04-13T00:35:12.014Z,4.97
2023-04-13T00:37:39.751Z,4.92
2023-04-13T00:40:08.746Z,4.87
2023-04-13T00:42:35.981Z,4.83
2023-04-13T00:45:03.084Z,4.78
2023-04-13T00:47:32.371Z,4.72
2023-04-13T00:50:06.068Z,4.64
2023-04-13T00:52:38.370Z,4.57
2023-04-13T00:55:06.279Z,4.52
2023-04-13T00:57:34.123Z,4.40
2023-04-13T01:00:12.915Z,4.27
2023-04-13T01:02:42.909Z,4.19
2023-04-13T01:05:14.156Z,4.17
2023-04-13T01:08:09.764Z,4.16
2023-04-13T01:10:50.390Z,4.13
2023-04-13T01:13:38.876Z,4.10
2023-04-13T01:16:27.619Z,4.08
2023-04-13T01:18:55.231Z,4.05
2023-04-13T01:21:26.166Z,4.01
2023-04-13T01:24:21.723Z,3.99
2023-04-13T01:26:51.366Z,3.98
2023-04-13T01:29:18.369Z,3.96
2023-04-13T01:31:46.959Z,3.91
2023-04-13T01:34:16.682Z,3.82
2023-04-13T01:36:43.863Z,3.75
2023-04-13T01:39:18.695Z,3.71
2023-04-13T01:41:46.362Z,3.69
2023-04-13T01:44:14.163Z,3.66
2023-04-13T01:46:46.469Z,3.63
2023-04-13T01:49:33.822Z,3.61
2023-04-13T01:52:27.905Z,3.60
2023-04-13T01:55:00.671Z,3.57
2023-04-13T01:57:31.054Z,3.54
2023-04-13T02:00:14.256Z,3.53
2023-04-13T02:02:41.627Z,3.51
2023-04-13T02:05:10.772Z,3.45
2023-04-13T02:07:40.107Z,3.44
2023-04-13T02:10:07.948Z,3.41
2023-04-13T02:12:34.988Z,3.38
2023-04-13T02:15:01.691Z,3.35
2023-04-13T02:17:33.946Z,3.34
2023-04-13T02:20:00.733Z,3.33
2023-04-13T02:22:27.422Z,3.31
2023-04-13T02:24:55.191Z,3.28
2023-04-13T02:27:22.717Z,3.30
2023-04-13T02:29:51.475Z,3.31
2023-04-13T02:32:18.543Z,3.30
2023-04-13T02:34:45.289Z,3.29
2023-04-13T02:37:12.234Z,3.29
2023-04-13T02:39:39.097Z,3.31
2023-04-13T02:42:05.892Z,3.28
2023-04-13T02:44:33.931Z,3.28
2023-04-13T02:47:01.424Z,3.27
2023-04-13T02:49:28.142Z,3.27
2023-04-13T02:52:15.691Z,3.25
2023-04-13T02:54:54.703Z,3.22
2023-04-13T02:57:23.701Z,3.20
2023-04-13T02:59:51.543Z,3.12
2023-04-13T03:02:19.172Z,3.03
2023-04-13T03:04:45.781Z,3.00
2023-04-13T03:07:14.353Z,2.94
2023-04-13T03:09:43.572Z,2.88
2023-04-13T03:12:10.975Z,2.86
2023-04-13T03:14:38.099Z,2.86
2023-04-13T03:17:07.497Z,2.86
2023-04-13T03:19:37.843Z,2.84
2023-04-13T03:22:04.545Z,2.83
2023-04-13T03:24:32.277Z,2.81
2023-04-13T03:27:02.541Z,2.80
2023-04-13T03:29:33.745Z,2.81
2023-04-13T03:32:00.658Z,2.79
2023-04-13T03:34:28.457Z,2.77
2023-04-13T03:36:55.334Z,2.75
2023-04-13T03:39:21.866Z,2.71
2023-04-13T03:41:48.465Z,2.67
2023-04-13T03:44:16.452Z,2.67
2023-04-13T03:46:44.898Z,2.67
2023-04-13T03:49:30.407Z,2.66
2023-04-13T03:51:58.951Z,2.67
2023-04-13T03:54:26.105Z,2.64
2023-04-13T03:56:53.206Z,2.59
2023-04-13T03:59:19.759Z,2.61
2023-04-13T04:01:47.122Z,2.66
2023-04-13T04:04:14.056Z,2.74
2023-04-13T04:06:41.139Z,2.85
2023-04-13T04:09:12.638Z,2.95
2023-04-13T04:11:46.639Z,3.03
2023-04-13T04:14:15.557Z,3.10
2023-04-13T04:16:49.670Z,3.14
2023-04-13T04:19:17.405Z,3.18
2023-04-13T04:21:46.896Z,3.22
2023-04-13T04:24:22.600Z,3.27
2023-04-13T04:26:54.972Z,3.32
2023-04-13T04:29:22.372Z,3.38
2023-04-13T04:31:54.051Z,3.43
2023-04-13T04:34:22.369Z,3.43
2023-04-13T04:36:51.030Z,3.42
2023-04-13T04:39:22.364Z,3.41
2023-04-13T04:41:55.605Z,3.44
2023-04-13T04:44:25.931Z,3.50
2023-04-13T04:46:52.984Z,3.58
2023-04-13T04:49:21.636Z,3.68
2023-04-13T04:51:49.369Z,3.81
2023-04-13T04:54:20.165Z,3.96
2023-04-13T04:56:48.176Z,4.06
2023-04-13T04:59:15.701Z,4.16
2023-04-13T05:01:53.103Z,4.26
2023-04-13T05:04:19.728Z,4.37
2023-04-13T05:06:46.726Z,4.49
2023-04-13T05:09:17.662Z,4.63
2023-04-13T05:11:47.195Z,4.78
2023-04-13T05:14:13.987Z,4.93
2023-04-13T05:16:40.751Z,5.06
2023-04-13T05:19:13.773Z,5.23
2023-04-13T05:21:47.458Z,5.39
2023-04-13T05:24:14.070Z,5.55
2023-04-13T05:26:42.861Z,5.72
2023-04-13T05:29:10.268Z,5.88
2023-04-13T05:31:39.458Z,6.05
2023-04-13T05:34:06.085Z,6.23
2023-04-13T05:36:32.875Z,6.39
2023-04-13T05:39:02.855Z,6.52
2023-04-13T05:41:29.481Z,6.62
2023-04-13T05:43:56.197Z,6.68
2023-04-13T05:46:22.923Z,6.77
2023-04-13T05:48:49.852Z,6.87
2023-04-13T05:51:16.512Z,7.01
2023-04-13T05:53:44.021Z,7.16
2023-04-13T05:56:11.126Z,7.34
2023-04-13T05:58:39.062Z,7.54
2023-04-13T06:01:19.968Z,7.75
2023-04-13T06:03:47.632Z,7.99
2023-04-13T06:06:21.161Z,8.32
2023-04-13T06:08:48.382Z,8.70
2023-04-13T06:11:16.488Z,9.08
2023-04-13T06:13:43.529Z,9.40
2023-04-13T06:16:10.542Z,9.64
2023-04-13T06:18:37.549Z,9.84
2023-04-13T06:21:04.664Z,10.01
2023-04-13T06:23:32.063Z,10.25
2023-04-13T06:26:01.549Z,10.76
2023-04-13T06:28:42.819Z,11.56
2023-04-13T06:31:12.225Z,12.38
2023-04-13T06:33:40.608Z,13.14
2023-04-13T06:36:08.151Z,13.90
2023-04-13T06:38:35.150Z,14.67
2023-04-13T06:41:04.941Z,15.50
2023-04-13T06:43:33.628Z,16.27
2023-04-13T06:46:22.299Z,17.13
2023-04-13T06:48:50.500Z,17.94
2023-04-13T06:51:19.083Z,18.69
2023-04-13T06:53:45.665Z,19.40
2023-04-13T06:56:12.393Z,20.11
2023-04-13T06:58:39.159Z,20.71
2023-04-13T07:01:06.966Z,21.21
2023-04-13T07:03:35.145Z,21.63
2023-04-13T07:06:02.635Z,22.07
2023-04-13T07:08:29.276Z,22.49
2023-04-13T07:10:57.640Z,22.77
2023-04-13T07:13:32.480Z,23.37
2023-04-13T07:15:59.553Z,23.91
2023-04-13T07:18:26.644Z,24.23
2023-04-13T07:20:53.825Z,24.69
2023-04-13T07:23:22.811Z,25.09
2023-04-13T07:25:49.569Z,25.49
2023-04-13T07:28:20.756Z,25.82
2023-04-13T07:30:47.573Z,25.98
2023-04-13T07:33:14.590Z,26.23
2023-04-13T07:35:41.371Z,26.61
2023-04-13T07:38:08.573Z,26.82
2023-04-13T07:40:38.127Z,26.94
2023-04-13T07:43:06.855Z,27.35
2023-04-13T07:45:36.871Z,27.91
2023-04-13T07:48:03.832Z,28.35
2023-04-13T07:50:30.619Z,28.56
2023-04-13T07:52:57.342Z,28.62
2023-04-13T07:55:24.326Z,28.54
2023-04-13T07:57:51.426Z,27.79
2023-04-13T08:00:20.415Z,27.43
2023-04-13T08:02:47.705Z,27.73
2023-04-13T08:05:18.193Z,28.03
2023-04-13T08:07:46.830Z,28.63
2023-04-13T08:10:14.961Z,29.47
2023-04-13T08:12:41.637Z,29.93
2023-04-13T08:15:09.761Z,30.53
2023-04-13T08:17:36.913Z,30.99
2023-04-13T08:20:10.989Z,31.06
2023-04-13T08:22:38.114Z,31.14
2023-04-13T08:25:07.169Z,31.49
2023-04-13T08:27:33.840Z,31.98
2023-04-13T08:30:02.225Z,32.43
2023-04-13T08:32:34.481Z,32.40
2023-04-13T08:35:06.892Z,32.42
2023-04-13T08:37:34.749Z,32.49
2023-04-13T08:40:02.389Z,32.65
2023-04-13T08:42:31.395Z,32.44
2023-04-13T08:45:01.296Z,32.82
2023-04-13T08:47:28.835Z,33.30
2023-04-13T08:49:59.438Z,33.73
2023-04-13T08:52:39.199Z,33.97
2023-04-13T08:55:05.983Z,34.04
2023-04-13T08:57:34.484Z,34.32
2023-04-13T09:00:01.568Z,34.42
2023-04-13T09:02:38.361Z,34.20
2023-04-13T09:05:16.054Z,33.93
2023-04-13T09:07:53.806Z,34.62
2023-04-13T09:10:20.746Z,35.25
2023-04-13T09:12:47.943Z,35.04
2023-04-13T09:15:15.068Z,34.84
2023-04-13T09:17:52.101Z,34.35
2023-04-13T09:20:22.540Z,33.45
2023-04-13T09:22:50.831Z,32.01
2023-04-13T09:25:24.650Z,31.80
2023-04-13T09:27:54.641Z,32.77
2023-04-13T09:30:22.564Z,32.46
2023-04-13T09:33:01.946Z,30.77
2023-04-13T09:35:34.201Z,29.48
2023-04-13T09:38:01.190Z,28.53
2023-04-13T09:40:28.448Z,27.69
2023-04-13T09:42:56.229Z,27.00
2023-04-13T09:45:23.718Z,26.18
2023-04-13T09:47:50.580Z,25.55
2023-04-13T09:50:28.019Z,25.15
2023-04-13T09:53:05.010Z,24.85
2023-04-13T09:55:35.458Z,24.67
2023-04-13T09:58:16.810Z,24.50
2023-04-13T10:00:46.379Z,24.29
2023-04-13T10:03:14.953Z,24.22
2023-04-13T10:05:58.033Z,24.26
2023-04-13T10:08:36.605Z,24.38
2023-04-13T10:11:08.146Z,24.43
2023-04-13T10:13:55.264Z,24.33
2023-04-13T10:16:42.180Z,24.92
2023-04-13T10:19:20.108Z,25.00
2023-04-13T10:21:50.278Z,24.84
2023-04-13T10:24:19.078Z,24.85
2023-04-13T10:26:46.130Z,24.88
2023-04-13T10:29:14.874Z,25.46
2023-04-13T10:31:48.852Z,26.79
2023-04-13T10:34:27.188Z,28.14
2023-04-13T10:36:56.242Z,29.53
2023-04-13T10:39:27.881Z,30.57
2023-04-13T10:42:04.572Z,31.39
2023-04-13T10:44:43.740Z,32.39
2023-04-13T10:47:11.563Z,32.13
2023-04-13T10:49:39.048Z,31.77
2023-04-13T10:52:05.791Z,31.04
2023-04-13T10:54:34.899Z,30.17
2023-04-13T10:57:03.505Z,30.17
2023-04-13T10:59:57.909Z,30.92
2023-04-13T11:02:31.565Z,32.07
2023-04-13T11:04:59.621Z,32.45
2023-04-13T11:07:26.936Z,32.09
2023-04-13T11:12:29.462Z,31.95
2023-04-13T11:14:56.299Z,32.18
2023-04-13T11:17:23.393Z,32.45
2023-04-13T11:19:54.498Z,32.18
2023-04-13T11:22:23.788Z,31.25
2023-04-13T11:24:51.521Z,30.60
2023-04-13T11:27:23.247Z,30.29
2023-04-13T11:30:00.112Z,30.73
2023-04-13T11:32:27.947Z,31.30
2023-04-13T11:35:05.662Z,31.11
2023-04-13T11:37:37.878Z,30.64
2023-04-13T11:40:17.466Z,30.19
2023-04-13T11:42:46.921Z,29.55
2023-04-13T11:45:13.855Z,29.38
2023-04-13T11:47:40.673Z,29.55
2023-04-13T11:50:07.986Z,29.69
2023-04-13T11:52:35.765Z,29.82
2023-04-13T11:55:19.010Z,29.90
2023-04-13T11:57:49.314Z,28.89
2023-04-13T12:00:24.089Z,27.65
2023-04-13T12:03:01.741Z,26.99
2023-04-13T12:05:31.552Z,26.00
2023-04-13T12:07:59.461Z,24.73
2023-04-13T12:10:37.313Z,23.87
2023-04-13T12:13:20.101Z,23.34
2023-04-13T12:16:06.114Z,23.47
2023-04-13T12:18:57.523Z,23.82
2023-04-13T12:21:26.339Z,24.52
2023-04-13T12:23:58.600Z,25.19
2023-04-13T12:27:16.410Z,25.39
2023-04-13T12:29:22.382Z,25.32
2023-04-13T12:31:48.993Z,25.18
2023-04-13T12:34:15.625Z,24.81
2023-04-13T12:36:42.136Z,24.45
2023-04-13T12:39:08.989Z,24.14
2023-04-13T12:41:35.697Z,23.71
2023-04-13T12:44:02.437Z,23.09
2023-04-13T12:46:29.523Z,23.00
2023-04-13T12:48:56.441Z,23.42
2023-04-13T12:51:23.186Z,23.93
2023-04-13T12:53:49.787Z,24.21
2023-04-13T12:56:16.324Z,24.73
2023-04-13T12:58:43.114Z,25.34
2023-04-13T13:01:10.185Z,25.71
2023-04-13T13:03:37.201Z,25.87
2023-04-13T13:06:08.210Z,25.91
2023-04-13T13:08:38.426Z,25.79
2023-04-13T13:11:08.233Z,25.54
2023-04-13T13:13:35.025Z,25.38
2023-04-13T13:16:01.610Z,25.22
2023-04-13T13:18:38.473Z,24.94
2023-04-13T13:21:09.399Z,24.30
2023-04-13T13:23:36.104Z,24.13
2023-04-13T13:26:21.443Z,24.09
2023-04-13T13:28:52.507Z,23.92
2023-04-13T13:31:19.530Z,23.87
2023-04-13T13:33:46.591Z,23.75
2023-04-13T13:36:14.525Z,23.23
2023-04-13T13:38:42.901Z,22.80
2023-04-13T13:41:10.388Z,22.73
2023-04-13T13:43:37.650Z,22.88
2023-04-13T13:46:05.917Z,23.18
2023-04-13T13:48:33.383Z,23.41
2023-04-13T13:51:08.435Z,23.33
2023-04-13T13:53:36.561Z,23.33
2023-04-13T13:56:03.616Z,23.39
2023-04-13T13:58:30.448Z,23.31
2023-04-13T14:00:57.195Z,23.24
2023-04-13T14:03:24.049Z,23.28
2023-04-13T14:05:51.264Z,22.95
2023-04-13T14:08:17.828Z,23.09
2023-04-13T14:10:48.489Z,23.39
2023-04-13T14:13:15.412Z,23.53
2023-04-13T14:15:42.082Z,23.62
2023-04-13T14:18:10.505Z,23.47
2023-04-13T14:20:39.383Z,23.25
2023-04-13T14:23:06.742Z,22.77
2023-04-13T14:25:33.481Z,22.50
2023-04-13T14:28:00.929Z,22.40
2023-04-13T14:30:28.459Z,22.23
2023-04-13T14:32:56.232Z,22.00
2023-04-13T14:35:23.421Z,21.56
2023-04-13T14:37:50.071Z,21.43
2023-04-13T14:40:20.868Z,21.41
2023-04-13T14:42:48.096Z,21.50
2023-04-13T14:45:14.853Z,21.57
2023-04-13T14:47:41.843Z,21.58
2023-04-13T14:50:10.995Z,21.39
2023-04-13T14:52:37.866Z,21.29
2023-04-13T14:55:05.262Z,21.05
2023-04-13T14:57:32.486Z,20.75
2023-04-13T14:59:59.195Z,20.73
2023-04-13T15:02:27.603Z,20.65
2023-04-13T15:04:54.595Z,20.51
2023-04-13T15:07:21.803Z,20.30
2023-04-13T15:09:48.996Z,20.26
2023-04-13T15:12:15.660Z,20.35
2023-04-13T15:14:46.558Z,20.42
2023-04-13T15:17:13.472Z,20.37
2023-04-13T15:19:40.170Z,20.28
2023-04-13T15:22:06.719Z,20.19
2023-04-13T15:24:33.382Z,19.95
2023-04-13T15:27:00.280Z,19.54
2023-04-13T15:29:27.197Z,19.30
2023-04-13T15:31:54.237Z,19.10
2023-04-13T15:34:21.053Z,18.90
2023-04-13T15:36:47.860Z,18.70
2023-04-13T15:39:14.604Z,18.49
2023-04-13T15:41:41.319Z,18.41
2023-04-13T15:44:08.167Z,18.38
2023-04-13T15:46:34.950Z,18.33
2023-04-13T15:49:01.803Z,18.17
2023-04-13T15:51:28.775Z,18.06
2023-04-13T15:53:55.386Z,18.02
2023-04-13T15:56:22.079Z,18.01
2023-04-13T15:58:49.811Z,18.00
2023-04-13T16:01:16.569Z,17.93
2023-04-13T16:03:43.616Z,17.91
2023-04-13T16:06:10.857Z,17.90
2023-04-13T16:08:37.931Z,17.91
2023-04-13T16:11:04.832Z,17.93
2023-04-13T16:13:48.772Z,17.93
2023-04-13T16:16:17.647Z,17.87
2023-04-13T16:18:44.343Z,17.84
2023-04-13T16:21:11.031Z,17.80
2023-04-13T16:23:38.329Z,17.65
2023-04-13T16:26:05.055Z,17.50
2023-04-13T16:28:32.069Z,17.41
2023-04-13T16:30:58.970Z,17.50
2023-04-13T16:33:25.602Z,17.54
2023-04-13T16:35:52.154Z,17.43
2023-04-13T16:38:18.818Z,17.33
2023-04-13T16:40:45.666Z,17.24
2023-04-13T16:43:12.720Z,17.11
2023-04-13T16:45:39.404Z,16.91
2023-04-13T16:48:06.272Z,16.79
2023-04-13T16:50:32.887Z,16.73
2023-04-13T16:52:59.575Z,16.65
2023-04-13T16:55:28.427Z,16.55
2023-04-13T16:57:55.895Z,16.46
2023-04-13T17:00:23.323Z,16.34
2023-04-13T17:02:50.041Z,16.22
2023-04-13T17:05:16.931Z,16.12
2023-04-13T17:07:44.461Z,16.01
2023-04-13T17:10:12.917Z,15.91
2023-04-13T17:12:40.345Z,15.79
2023-04-13T17:15:07.801Z,15.67
2023-04-13T17:17:34.454Z,15.54
2023-04-13T17:20:01.089Z,15.40
2023-04-13T17:22:27.849Z,15.27
2023-04-13T17:24:55.179Z,15.12
2023-04-13T17:27:21.757Z,14.99
2023-04-13T17:29:49.672Z,14.91
2023-04-13T17:32:16.543Z,14.81
2023-04-13T17:34:44.612Z,14.71
2023-04-13T17:37:11.831Z,14.64
2023-04-13T17:39:42.214Z,14.55
2023-04-13T17:42:09.655Z,14.48
2023-04-13T17:44:37.868Z,14.38
2023-04-13T17:47:07.532Z,14.29
2023-04-13T17:49:34.138Z,14.21
2023-04-13T17:52:01.058Z,14.19
2023-04-13T17:54:28.088Z,14.16
2023-04-13T17:56:55.748Z,14.00
2023-04-13T17:59:24.216Z,13.88
2023-04-13T18:01:54.481Z,13.77
2023-04-13T18:04:21.434Z,13.64
2023-04-13T18:06:48.660Z,13.52
2023-04-13T18:09:15.650Z,13.42
2023-04-13T18:11:42.362Z,13.31
2023-04-13T18:14:13.058Z,13.22
2023-04-13T18:16:39.791Z,13.14
2023-04-13T18:19:06.828Z,13.05
2023-04-13T18:21:33.588Z,12.93
2023-04-13T18:24:03.080Z,12.81
2023-04-13T18:26:29.917Z,12.69
2023-04-13T18:28:56.522Z,12.58
2023-04-13T18:31:23.297Z,12.48
2023-04-13T18:33:49.948Z,12.38
2023-04-13T18:36:17.752Z,12.30
2023-04-13T18:38:45.344Z,12.22
2023-04-13T18:41:11.999Z,12.15
2023-04-13T18:43:39.422Z,12.08
2023-04-13T18:46:06.470Z,12.02
2023-04-13T18:48:33.265Z,11.96
2023-04-13T18:51:00.398Z,11.90
2023-04-13T18:53:26.994Z,11.84
2023-04-13T18:55:53.600Z,11.80
2023-04-13T18:58:20.905Z,11.76
2023-04-13T19:00:48.061Z,11.70
2023-04-13T19:03:14.769Z,11.62
2023-04-13T19:05:41.553Z,11.56
2023-04-13T19:08:11.117Z,11.52
2023-04-13T19:10:37.820Z,11.45
2023-04-13T19:13:04.563Z,11.37
2023-04-13T19:15:31.554Z,11.32
2023-04-13T19:17:59.247Z,11.27
2023-04-13T19:20:25.885Z,11.21
2023-04-13T19:22:52.479Z,11.16
2023-04-13T19:25:19.275Z,11.12
2023-04-13T19:27:46.845Z,11.09
2023-04-13T19:30:15.688Z,11.08
2023-04-13T19:32:44.354Z,11.05
2023-04-13T19:35:12.700Z,11.00
2023-04-13T19:37:40.434Z,10.97
2023-04-13T19:40:13.725Z,10.94
2023-04-13T19:42:45.915Z,10.92
2023-04-13T19:45:14.469Z,10.89
2023-04-13T19:47:42.244Z,10.86
2023-04-13T19:50:11.740Z,10.83
2023-04-13T19:52:38.761Z,10.79
2023-04-13T19:55:07.437Z,10.75
2023-04-13T19:57:36.622Z,10.72
2023-04-13T20:00:07.348Z,10.68
2023-04-13T20:02:33.990Z,10.64
2023-04-13T20:05:00.799Z,10.59
2023-04-13T20:07:27.408Z,10.55
2023-04-13T20:09:53.976Z,10.52
2023-04-13T20:12:21.057Z,10.50
2023-04-13T20:14:48.296Z,10.48
2023-04-13T20:17:16.284Z,10.45
2023-04-13T20:19:42.950Z,10.42
2023-04-13T20:22:10.164Z,10.38
2023-04-13T20:24:36.807Z,10.35
2023-04-13T20:27:03.471Z,10.31
2023-04-13T20:29:30.001Z,10.27
2023-04-13T20:31:56.720Z,10.24
2023-04-13T20:34:24.285Z,10.21
2023-04-13T20:36:50.858Z,10.19
2023-04-13T20:39:25.401Z,10.18
2023-04-13T20:41:55.884Z,10.15
2023-04-13T20:44:25.600Z,10.11
2023-04-13T20:46:55.255Z,10.07
2023-04-13T20:49:25.937Z,10.03
2023-04-13T20:51:57.344Z,9.99
2023-04-13T20:54:23.980Z,9.96
2023-04-13T20:56:50.766Z,9.93
2023-04-13T20:59:18.272Z,9.91
2023-04-13T21:01:45.580Z,9.88
2023-04-13T21:04:12.428Z,9.84
2023-04-13T21:06:40.338Z,9.81
2023-04-13T21:09:08.258Z,9.77
2023-04-13T21:11:34.949Z,9.73
2023-04-13T21:14:01.906Z,9.69
2023-04-13T21:16:29.090Z,9.65
2023-04-13T21:18:55.983Z,9.61
2023-04-13T21:21:24.110Z,9.56
2023-04-13T21:23:51.218Z,9.54
2023-04-13T21:26:17.851Z,9.51
2023-04-13T21:28:44.421Z,9.48
2023-04-13T21:31:11.146Z,9.45
2023-04-13T21:33:37.687Z,9.42
2023-04-13T21:38:41.586Z,9.36
2023-04-13T21:41:18.601Z,9.34
2023-04-13T21:43:45.884Z,9.33
2023-04-13T21:46:14.278Z,9.31
2023-04-13T21:48:41.454Z,9.29
2023-04-13T21:51:09.515Z,9.28
2023-04-13T21:53:36.856Z,9.26
2023-04-13T21:56:06.995Z,9.24
2023-04-13T21:58:41.585Z,9.22
2023-04-13T22:01:09.381Z,9.19
2023-04-13T22:03:37.969Z,9.16
2023-04-13T22:06:06.984Z,9.14
2023-04-13T22:08:33.924Z,9.12
2023-04-13T22:11:01.442Z,9.10
2023-04-13T22:13:28.456Z,9.09
2023-04-13T22:15:55.380Z,9.07
2023-04-13T22:18:22.142Z,9.06
2023-04-13T22:20:48.756Z,9.04
2023-04-13T22:23:15.450Z,9.02
2023-04-13T22:25:42.345Z,9.00
2023-04-13T22:28:08.901Z,8.98
2023-04-13T22:30:38.319Z,8.95
2023-04-13T22:33:04.880Z,8.92
2023-04-13T22:35:34.322Z,8.89
2023-04-13T22:38:02.655Z,8.86
2023-04-13T22:40:29.190Z,8.84
2023-04-13T22:42:55.812Z,8.80
2023-04-13T22:45:22.557Z,8.77
2023-04-13T22:47:53.402Z,8.73
2023-04-13T22:50:20.578Z,8.71
2023-04-13T22:52:47.130Z,8.68
2023-04-13T22:55:13.692Z,8.65
2023-04-13T22:57:40.451Z,8.61
2023-04-13T23:00:07.540Z,8.58
2023-04-13T23:02:34.227Z,8.55
2023-04-13T23:05:01.103Z,8.52
2023-04-13T23:07:27.713Z,8.49
2023-04-13T23:09:54.233Z,8.46
2023-04-13T23:12:20.985Z,8.43
2023-04-13T23:14:47.489Z,8.41
2023-04-13T23:17:14.373Z,8.38
2023-04-13T23:19:40.905Z,8.36
2023-04-13T23:22:07.473Z,8.33
2023-04-13T23:24:34.163Z,8.31
2023-04-13T23:27:00.750Z,8.27
2023-04-13T23:29:27.378Z,8.24
2023-04-13T23:31:57.458Z,8.21
2023-04-13T23:34:24.092Z,8.18
2023-04-13T23:36:51.043Z,8.16
2023-04-13T23:39:17.668Z,8.14
2023-04-13T23:41:44.263Z,8.13
2023-04-13T23:44:11.272Z,8.12
2023-04-13T23:46:38.604Z,8.09
2023-04-13T23:49:05.136Z,8.08
2023-04-13T23:51:31.772Z,8.06
2023-04-13T23:53:58.293Z,8.04
2023-04-13T23:56:24.846Z,8.02
2023-04-13T23:58:51.415Z,8.00
